05:03
Airports
History
Links
Donate
Help keep this website running!
PayPal
Bitcoin
This page is community maintained. The information is intended for PC simulator navigation or reference.
Always use approved charts for navigation.
SBCG
Campo Grande
Campo Grande (SBCG)
Campo Grande, Mato Grosso do Sul, Brazil (79091)
(C)
Lat/Lng:20° 28' 7.2" S / 54° 40' 21" W
-20.468666 / -54.6725
Elevation:1833'ft / 559mMSL
ID / ICAO:SBCG
Runways:1
Longest:06-24
Asphalt 2,607m / 8,553ft
Controlled:Yes
METAR05:00 GMT 2018-01-21
Altimeter: 29.91
Visibility: 6.2 statute miles
Wind: 4 knots (from 090°)
Temp: 22°c / 72°f
Humidity: 88.4%

METAR: SBCG 210500Z 09004KT CAVOK 22/20 Q1013

(Powered by phpweather)
Airport Radio Frequencies
Ground: 121.9
Tower: 118.1
Approach: 120.2
Runway 06 / 24
Dimensions:2607.1 x 43m 8553' x 141'ft
Surface:Asphalt
Edge Lights:Low intensity
Runway 06 [A]Runway 24 [B]
Heading:040°TH 220°TH
Lat:
Lng:
20° 28' 39.15"S
54° 40' 50.48"W
20° 27' 35.24"S
54° 39' 51.52"W
ALS:MALSR
User Notes and Comments
20° 28' 7.2" S / 54° 40' 21" W
Distance To
Airport ID:
Nearby Airports
4 Fazenda Sao Jose 7.8 NM
SIEF SSW 201°
(U) ESTANCIA SANTA MARIA 9.8 NM
SSKG ESE 104°
(C) Teruel Ipanema Estancia 10.1 NM
SSIE SSE 153°
4 Estancia Ema 10.9 NM
SSCS SSW 197°
(U) SITIO POUSO DO AVIADOR 12.4 NM
SSAY E 96°
4 Fazenda Paraiso 14.0 NM
SSHQ WSW 242°
4 Fazenda Estancia Regina 14.1 NM
SIQD SSW 212°
VFR Chart
Flight Planning at SkyVector.com